sensor_id;sensor_type;location;lat;lon;timestamp;P1;durP1;ratioP1;P2;durP2;ratioP2
24635;SDS011;12772;49.794;10.024;2023-04-03T00:01:26;2.10;;;2.00;;
24635;SDS011;12772;49.794;10.024;2023-04-03T00:05:28;2.42;;;2.22;;
24635;SDS011;12772;49.794;10.024;2023-04-03T00:09:30;3.30;;;2.47;;
24635;SDS011;12772;49.794;10.024;2023-04-03T00:13:32;3.50;;;2.45;;
24635;SDS011;12772;49.794;10.024;2023-04-03T00:17:35;6.45;;;3.25;;
24635;SDS011;12772;49.794;10.024;2023-04-03T00:21:37;4.18;;;3.10;;
24635;SDS011;12772;49.794;10.024;2023-04-03T00:25:40;3.30;;;3.00;;
24635;SDS011;12772;49.794;10.024;2023-04-03T00:29:42;3.30;;;2.88;;
24635;SDS011;12772;49.794;10.024;2023-04-03T00:33:44;2.60;;;2.40;;
24635;SDS011;12772;49.794;10.024;2023-04-03T00:37:46;2.40;;;2.20;;
24635;SDS011;12772;49.794;10.024;2023-04-03T00:41:49;2.70;;;2.50;;
24635;SDS011;12772;49.794;10.024;2023-04-03T00:45:52;2.60;;;2.40;;
24635;SDS011;12772;49.794;10.024;2023-04-03T00:49:56;2.75;;;2.35;;
24635;SDS011;12772;49.794;10.024;2023-04-03T00:54:00;2.85;;;2.53;;
24635;SDS011;12772;49.794;10.024;2023-04-03T00:58:04;3.13;;;2.45;;
24635;SDS011;12772;49.794;10.024;2023-04-03T01:02:07;3.63;;;2.53;;
24635;SDS011;12772;49.794;10.024;2023-04-03T01:06:09;3.28;;;2.53;;
24635;SDS011;12772;49.794;10.024;2023-04-03T01:10:20;3.08;;;2.78;;
24635;SDS011;12772;49.794;10.024;2023-04-03T01:14:23;3.58;;;2.42;;
24635;SDS011;12772;49.794;10.024;2023-04-03T01:18:25;3.97;;;2.40;;
24635;SDS011;12772;49.794;10.024;2023-04-03T01:22:32;3.72;;;2.50;;
24635;SDS011;12772;49.794;10.024;2023-04-03T01:26:42;3.30;;;2.88;;
24635;SDS011;12772;49.794;10.024;2023-04-03T01:35:10;4.15;;;2.47;;
24635;SDS011;12772;49.794;10.024;2023-04-03T01:39:13;2.67;;;2.38;;
24635;SDS011;12772;49.794;10.024;2023-04-03T01:43:15;2.38;;;2.10;;
24635;SDS011;12772;49.794;10.024;2023-04-03T01:47:17;2.90;;;2.30;;
24635;SDS011;12772;49.794;10.024;2023-04-03T01:51:20;3.00;;;2.42;;
24635;SDS011;12772;49.794;10.024;2023-04-03T01:55:22;3.40;;;2.40;;
24635;SDS011;12772;49.794;10.024;2023-04-03T01:59:24;3.95;;;2.65;;
24635;SDS011;12772;49.794;10.024;2023-04-03T02:03:26;5.18;;;2.85;;
24635;SDS011;12772;49.794;10.024;2023-04-03T02:07:28;2.28;;;2.13;;
24635;SDS011;12772;49.794;10.024;2023-04-03T02:11:30;4.55;;;2.60;;
24635;SDS011;12772;49.794;10.024;2023-04-03T02:15:32;2.78;;;2.47;;
24635;SDS011;12772;49.794;10.024;2023-04-03T02:19:35;3.90;;;2.28;;
24635;SDS011;12772;49.794;10.024;2023-04-03T02:23:37;2.72;;;2.47;;
24635;SDS011;12772;49.794;10.024;2023-04-03T02:27:39;2.95;;;2.13;;
24635;SDS011;12772;49.794;10.024;2023-04-03T02:31:41;2.15;;;1.95;;
24635;SDS011;12772;49.794;10.024;2023-04-03T02:35:43;3.78;;;2.50;;
24635;SDS011;12772;49.794;10.024;2023-04-03T02:39:46;2.53;;;1.90;;
24635;SDS011;12772;49.794;10.024;2023-04-03T02:43:48;3.67;;;2.13;;
24635;SDS011;12772;49.794;10.024;2023-04-03T02:47:50;2.75;;;2.20;;
24635;SDS011;12772;49.794;10.024;2023-04-03T02:51:52;2.33;;;2.13;;
24635;SDS011;12772;49.794;10.024;2023-04-03T02:55:54;2.28;;;1.92;;
24635;SDS011;12772;49.794;10.024;2023-04-03T02:59:56;2.22;;;2.10;;
24635;SDS011;12772;49.794;10.024;2023-04-03T03:03:58;2.42;;;2.22;;
24635;SDS011;12772;49.794;10.024;2023-04-03T03:08:01;4.00;;;2.25;;
24635;SDS011;12772;49.794;10.024;2023-04-03T03:12:03;2.50;;;2.30;;
24635;SDS011;12772;49.794;10.024;2023-04-03T03:16:05;3.75;;;2.67;;
24635;SDS011;12772;49.794;10.024;2023-04-03T03:20:08;2.95;;;2.30;;
24635;SDS011;12772;49.794;10.024;2023-04-03T03:24:10;2.70;;;2.50;;
24635;SDS011;12772;49.794;10.024;2023-04-03T03:28:12;3.03;;;2.22;;
24635;SDS011;12772;49.794;10.024;2023-04-03T03:32:15;5.75;;;2.30;;
24635;SDS011;12772;49.794;10.024;2023-04-03T03:36:17;4.35;;;2.72;;
24635;SDS011;12772;49.794;10.024;2023-04-03T03:40:19;4.07;;;2.95;;
24635;SDS011;12772;49.794;10.024;2023-04-03T03:44:22;3.05;;;2.63;;
24635;SDS011;12772;49.794;10.024;2023-04-03T03:48:24;3.15;;;2.50;;
24635;SDS011;12772;49.794;10.024;2023-04-03T03:52:26;3.55;;;2.53;;
24635;SDS011;12772;49.794;10.024;2023-04-03T03:56:28;3.03;;;2.60;;
24635;SDS011;12772;49.794;10.024;2023-04-03T04:00:30;2.90;;;2.40;;
24635;SDS011;12772;49.794;10.024;2023-04-03T04:04:32;4.60;;;2.72;;
24635;SDS011;12772;49.794;10.024;2023-04-03T04:08:34;2.58;;;2.38;;
24635;SDS011;12772;49.794;10.024;2023-04-03T04:12:36;3.63;;;2.63;;
24635;SDS011;12772;49.794;10.024;2023-04-03T04:16:38;3.40;;;2.58;;
24635;SDS011;12772;49.794;10.024;2023-04-03T04:20:40;3.22;;;2.92;;
24635;SDS011;12772;49.794;10.024;2023-04-03T04:24:42;3.10;;;2.40;;
24635;SDS011;12772;49.794;10.024;2023-04-03T04:28:44;3.33;;;2.50;;
24635;SDS011;12772;49.794;10.024;2023-04-03T04:32:46;8.43;;;2.97;;
24635;SDS011;12772;49.794;10.024;2023-04-03T04:36:48;4.22;;;2.85;;
24635;SDS011;12772;49.794;10.024;2023-04-03T04:40:51;3.97;;;2.63;;
24635;SDS011;12772;49.794;10.024;2023-04-03T04:44:53;5.28;;;2.42;;
24635;SDS011;12772;49.794;10.024;2023-04-03T04:48:55;3.17;;;2.35;;
24635;SDS011;12772;49.794;10.024;2023-04-03T04:52:57;3.10;;;2.38;;
24635;SDS011;12772;49.794;10.024;2023-04-03T04:56:59;3.30;;;2.83;;
24635;SDS011;12772;49.794;10.024;2023-04-03T05:01:02;3.72;;;3.25;;
24635;SDS011;12772;49.794;10.024;2023-04-03T05:05:05;4.05;;;2.70;;
24635;SDS011;12772;49.794;10.024;2023-04-03T05:09:08;4.25;;;2.55;;
24635;SDS011;12772;49.794;10.024;2023-04-03T05:13:10;4.57;;;2.50;;
24635;SDS011;12772;49.794;10.024;2023-04-03T05:17:12;3.90;;;2.80;;
24635;SDS011;12772;49.794;10.024;2023-04-03T05:21:14;2.95;;;2.75;;
24635;SDS011;12772;49.794;10.024;2023-04-03T05:25:18;3.08;;;2.72;;
24635;SDS011;12772;49.794;10.024;2023-04-03T05:29:20;2.53;;;2.38;;
24635;SDS011;12772;49.794;10.024;2023-04-03T05:33:23;3.17;;;2.88;;
24635;SDS011;12772;49.794;10.024;2023-04-03T05:37:26;4.97;;;2.80;;
24635;SDS011;12772;49.794;10.024;2023-04-03T05:41:28;2.90;;;2.55;;
24635;SDS011;12772;49.794;10.024;2023-04-03T05:45:30;3.03;;;2.70;;
24635;SDS011;12772;49.794;10.024;2023-04-03T05:49:32;3.13;;;2.80;;
24635;SDS011;12772;49.794;10.024;2023-04-03T05:53:35;7.47;;;3.08;;
24635;SDS011;12772;49.794;10.024;2023-04-03T05:57:38;3.95;;;2.83;;
24635;SDS011;12772;49.794;10.024;2023-04-03T06:01:40;3.63;;;2.65;;
24635;SDS011;12772;49.794;10.024;2023-04-03T06:05:42;4.07;;;3.03;;
24635;SDS011;12772;49.794;10.024;2023-04-03T06:09:44;6.38;;;2.80;;
24635;SDS011;12772;49.794;10.024;2023-04-03T06:13:46;3.80;;;2.97;;
24635;SDS011;12772;49.794;10.024;2023-04-03T06:17:48;4.25;;;2.58;;
24635;SDS011;12772;49.794;10.024;2023-04-03T06:21:51;3.95;;;2.83;;
24635;SDS011;12772;49.794;10.024;2023-04-03T06:25:53;3.17;;;2.60;;
24635;SDS011;12772;49.794;10.024;2023-04-03T06:29:55;3.33;;;3.03;;
24635;SDS011;12772;49.794;10.024;2023-04-03T06:33:57;9.18;;;2.88;;
24635;SDS011;12772;49.794;10.024;2023-04-03T06:37:59;5.97;;;3.15;;
24635;SDS011;12772;49.794;10.024;2023-04-03T06:42:01;4.43;;;3.10;;
24635;SDS011;12772;49.794;10.024;2023-04-03T06:46:04;4.43;;;3.38;;
24635;SDS011;12772;49.794;10.024;2023-04-03T06:50:06;6.70;;;3.10;;
24635;SDS011;12772;49.794;10.024;2023-04-03T06:54:09;4.68;;;3.00;;
24635;SDS011;12772;49.794;10.024;2023-04-03T06:58:11;4.30;;;2.60;;
24635;SDS011;12772;49.794;10.024;2023-04-03T07:02:14;6.43;;;2.80;;
24635;SDS011;12772;49.794;10.024;2023-04-03T07:06:16;3.00;;;2.55;;
24635;SDS011;12772;49.794;10.024;2023-04-03T07:10:19;4.10;;;3.00;;
24635;SDS011;12772;49.794;10.024;2023-04-03T07:14:21;3.50;;;2.72;;
24635;SDS011;12772;49.794;10.024;2023-04-03T07:18:23;4.88;;;3.08;;
24635;SDS011;12772;49.794;10.024;2023-04-03T07:22:25;4.85;;;2.72;;
24635;SDS011;12772;49.794;10.024;2023-04-03T07:26:27;3.53;;;3.22;;
24635;SDS011;12772;49.794;10.024;2023-04-03T07:30:29;4.75;;;2.83;;
24635;SDS011;12772;49.794;10.024;2023-04-03T07:34:31;3.00;;;2.58;;
24635;SDS011;12772;49.794;10.024;2023-04-03T07:38:34;3.08;;;2.78;;
24635;SDS011;12772;49.794;10.024;2023-04-03T07:42:37;2.65;;;2.38;;
24635;SDS011;12772;49.794;10.024;2023-04-03T07:46:39;3.53;;;2.60;;
24635;SDS011;12772;49.794;10.024;2023-04-03T07:50:41;3.85;;;2.83;;
24635;SDS011;12772;49.794;10.024;2023-04-03T07:54:43;2.70;;;2.30;;
24635;SDS011;12772;49.794;10.024;2023-04-03T07:58:45;4.18;;;2.63;;
24635;SDS011;12772;49.794;10.024;2023-04-03T08:02:48;4.18;;;2.63;;
24635;SDS011;12772;49.794;10.024;2023-04-03T08:06:51;6.35;;;3.17;;
24635;SDS011;12772;49.794;10.024;2023-04-03T08:10:54;2.50;;;2.30;;
24635;SDS011;12772;49.794;10.024;2023-04-03T08:14:56;3.05;;;2.40;;
24635;SDS011;12772;49.794;10.024;2023-04-03T08:18:58;2.95;;;2.20;;
24635;SDS011;12772;49.794;10.024;2023-04-03T08:23:00;3.15;;;2.53;;
24635;SDS011;12772;49.794;10.024;2023-04-03T08:27:02;4.60;;;2.60;;
24635;SDS011;12772;49.794;10.024;2023-04-03T08:31:05;4.15;;;3.20;;
24635;SDS011;12772;49.794;10.024;2023-04-03T08:35:11;4.78;;;2.38;;
24635;SDS011;12772;49.794;10.024;2023-04-03T08:39:13;2.92;;;2.40;;
24635;SDS011;12772;49.794;10.024;2023-04-03T08:43:35;6.95;;;2.97;;
24635;SDS011;12772;49.794;10.024;2023-04-03T08:47:59;3.20;;;2.30;;
24635;SDS011;12772;49.794;10.024;2023-04-03T08:52:12;3.63;;;2.45;;
24635;SDS011;12772;49.794;10.024;2023-04-03T08:56:18;4.00;;;2.67;;
24635;SDS011;12772;49.794;10.024;2023-04-03T09:00:22;4.43;;;2.78;;
24635;SDS011;12772;49.794;10.024;2023-04-03T09:04:26;3.40;;;2.50;;
24635;SDS011;12772;49.794;10.024;2023-04-03T09:08:29;4.20;;;2.60;;
24635;SDS011;12772;49.794;10.024;2023-04-03T09:12:42;4.72;;;2.90;;
24635;SDS011;12772;49.794;10.024;2023-04-03T09:17:13;4.13;;;2.42;;
24635;SDS011;12772;49.794;10.024;2023-04-03T09:21:39;2.55;;;2.10;;
24635;SDS011;12772;49.794;10.024;2023-04-03T09:25:42;3.55;;;2.30;;
24635;SDS011;12772;49.794;10.024;2023-04-03T09:29:45;2.92;;;2.33;;
24635;SDS011;12772;49.794;10.024;2023-04-03T09:33:51;6.32;;;2.72;;
24635;SDS011;12772;49.794;10.024;2023-04-03T09:37:58;3.83;;;2.53;;
24635;SDS011;12772;49.794;10.024;2023-04-03T09:42:23;2.38;;;2.17;;
24635;SDS011;12772;49.794;10.024;2023-04-03T09:46:30;2.25;;;1.55;;
24635;SDS011;12772;49.794;10.024;2023-04-03T09:50:34;3.60;;;1.70;;
24635;SDS011;12772;49.794;10.024;2023-04-03T09:54:37;4.75;;;2.50;;
24635;SDS011;12772;49.794;10.024;2023-04-03T09:58:42;6.05;;;2.50;;
24635;SDS011;12772;49.794;10.024;2023-04-03T10:02:46;3.53;;;2.15;;
24635;SDS011;12772;49.794;10.024;2023-04-03T10:06:53;2.65;;;2.25;;
24635;SDS011;12772;49.794;10.024;2023-04-03T10:11:10;3.38;;;2.40;;
24635;SDS011;12772;49.794;10.024;2023-04-03T10:15:13;3.17;;;1.80;;
24635;SDS011;12772;49.794;10.024;2023-04-03T10:28:06;2.90;;;2.10;;
24635;SDS011;12772;49.794;10.024;2023-04-03T10:36:49;3.97;;;2.42;;
24635;SDS011;12772;49.794;10.024;2023-04-03T10:41:10;4.18;;;2.10;;
24635;SDS011;12772;49.794;10.024;2023-04-03T10:50:04;3.28;;;2.35;;
24635;SDS011;12772;49.794;10.024;2023-04-03T10:54:25;4.05;;;2.85;;
24635;SDS011;12772;49.794;10.024;2023-04-03T10:58:35;1.90;;;1.80;;
24635;SDS011;12772;49.794;10.024;2023-04-03T11:02:48;2.30;;;1.90;;
24635;SDS011;12772;49.794;10.024;2023-04-03T11:07:08;2.15;;;1.95;;
24635;SDS011;12772;49.794;10.024;2023-04-03T11:11:37;2.05;;;1.85;;
24635;SDS011;12772;49.794;10.024;2023-04-03T11:15:40;2.88;;;2.33;;
24635;SDS011;12772;49.794;10.024;2023-04-03T11:23:51;2.42;;;2.08;;
24635;SDS011;12772;49.794;10.024;2023-04-03T11:27:59;2.05;;;1.83;;
24635;SDS011;12772;49.794;10.024;2023-04-03T11:32:07;2.08;;;1.92;;
24635;SDS011;12772;49.794;10.024;2023-04-03T11:36:21;3.90;;;2.08;;
24635;SDS011;12772;49.794;10.024;2023-04-03T11:40:28;1.90;;;1.80;;
24635;SDS011;12772;49.794;10.024;2023-04-03T11:44:36;2.42;;;2.20;;
24635;SDS011;12772;49.794;10.024;2023-04-03T11:48:41;3.08;;;2.10;;
24635;SDS011;12772;49.794;10.024;2023-04-03T11:56:50;2.47;;;1.85;;
24635;SDS011;12772;49.794;10.024;2023-04-03T12:00:54;1.95;;;1.85;;
24635;SDS011;12772;49.794;10.024;2023-04-03T12:13:37;1.75;;;1.40;;
24635;SDS011;12772;49.794;10.024;2023-04-03T12:17:39;2.33;;;2.13;;
24635;SDS011;12772;49.794;10.024;2023-04-03T12:25:48;1.63;;;1.52;;
24635;SDS011;12772;49.794;10.024;2023-04-03T12:34:13;1.55;;;1.45;;
24635;SDS011;12772;49.794;10.024;2023-04-03T12:38:41;2.10;;;1.80;;
24635;SDS011;12772;49.794;10.024;2023-04-03T12:47:21;2.90;;;2.03;;
24635;SDS011;12772;49.794;10.024;2023-04-03T12:51:34;1.60;;;1.50;;
24635;SDS011;12772;49.794;10.024;2023-04-03T12:55:45;2.33;;;1.77;;
24635;SDS011;12772;49.794;10.024;2023-04-03T12:59:47;1.88;;;1.60;;
24635;SDS011;12772;49.794;10.024;2023-04-03T13:03:51;2.25;;;1.60;;
24635;SDS011;12772;49.794;10.024;2023-04-03T13:08:00;4.07;;;1.60;;
24635;SDS011;12772;49.794;10.024;2023-04-03T13:12:12;2.22;;;1.77;;
24635;SDS011;12772;49.794;10.024;2023-04-03T13:16:18;2.67;;;1.75;;
24635;SDS011;12772;49.794;10.024;2023-04-03T13:20:25;1.70;;;1.60;;
24635;SDS011;12772;49.794;10.024;2023-04-03T13:24:29;3.10;;;1.58;;
24635;SDS011;12772;49.794;10.024;2023-04-03T13:28:33;1.83;;;1.38;;
24635;SDS011;12772;49.794;10.024;2023-04-03T13:32:37;1.55;;;1.42;;
24635;SDS011;12772;49.794;10.024;2023-04-03T13:37:00;1.60;;;1.50;;
24635;SDS011;12772;49.794;10.024;2023-04-03T13:41:05;2.47;;;1.92;;
24635;SDS011;12772;49.794;10.024;2023-04-03T13:45:26;2.08;;;1.40;;
24635;SDS011;12772;49.794;10.024;2023-04-03T13:49:32;2.45;;;1.40;;
24635;SDS011;12772;49.794;10.024;2023-04-03T13:53:46;2.10;;;1.65;;
24635;SDS011;12772;49.794;10.024;2023-04-03T13:57:59;2.03;;;1.50;;
24635;SDS011;12772;49.794;10.024;2023-04-03T14:06:06;1.67;;;1.40;;
24635;SDS011;12772;49.794;10.024;2023-04-03T14:10:09;2.22;;;1.30;;
24635;SDS011;12772;49.794;10.024;2023-04-03T14:14:13;1.67;;;1.45;;
24635;SDS011;12772;49.794;10.024;2023-04-03T14:18:18;1.48;;;1.38;;
24635;SDS011;12772;49.794;10.024;2023-04-03T14:22:22;2.00;;;1.40;;
24635;SDS011;12772;49.794;10.024;2023-04-03T14:26:29;3.33;;;1.75;;
24635;SDS011;12772;49.794;10.024;2023-04-03T14:30:32;4.20;;;1.40;;
24635;SDS011;12772;49.794;10.024;2023-04-03T14:34:35;1.77;;;1.58;;
24635;SDS011;12772;49.794;10.024;2023-04-03T14:38:37;2.30;;;1.35;;
24635;SDS011;12772;49.794;10.024;2023-04-03T14:42:39;3.75;;;1.80;;
24635;SDS011;12772;49.794;10.024;2023-04-03T14:46:42;1.77;;;1.42;;
24635;SDS011;12772;49.794;10.024;2023-04-03T14:50:46;3.28;;;1.55;;
24635;SDS011;12772;49.794;10.024;2023-04-03T14:54:49;1.75;;;1.65;;
24635;SDS011;12772;49.794;10.024;2023-04-03T14:58:54;1.30;;;1.20;;
24635;SDS011;12772;49.794;10.024;2023-04-03T15:02:58;2.97;;;1.40;;
24635;SDS011;12772;49.794;10.024;2023-04-03T15:07:00;2.65;;;1.55;;
24635;SDS011;12772;49.794;10.024;2023-04-03T15:11:02;3.60;;;1.63;;
24635;SDS011;12772;49.794;10.024;2023-04-03T15:15:05;1.92;;;1.50;;
24635;SDS011;12772;49.794;10.024;2023-04-03T15:19:08;1.50;;;1.40;;
24635;SDS011;12772;49.794;10.024;2023-04-03T15:23:16;1.40;;;1.30;;
24635;SDS011;12772;49.794;10.024;2023-04-03T15:27:18;1.13;;;1.08;;
24635;SDS011;12772;49.794;10.024;2023-04-03T15:31:20;1.65;;;1.52;;
24635;SDS011;12772;49.794;10.024;2023-04-03T15:35:22;1.85;;;1.30;;
24635;SDS011;12772;49.794;10.024;2023-04-03T15:39:25;1.30;;;1.17;;
24635;SDS011;12772;49.794;10.024;2023-04-03T15:43:27;2.00;;;1.67;;
24635;SDS011;12772;49.794;10.024;2023-04-03T15:47:30;2.40;;;1.33;;
24635;SDS011;12772;49.794;10.024;2023-04-03T15:51:32;5.90;;;1.65;;
24635;SDS011;12772;49.794;10.024;2023-04-03T15:55:34;3.05;;;1.90;;
24635;SDS011;12772;49.794;10.024;2023-04-03T15:59:37;2.83;;;1.60;;
24635;SDS011;12772;49.794;10.024;2023-04-03T16:03:40;2.92;;;2.42;;
24635;SDS011;12772;49.794;10.024;2023-04-03T16:07:45;4.28;;;3.58;;
24635;SDS011;12772;49.794;10.024;2023-04-03T16:11:48;1.63;;;1.30;;
24635;SDS011;12772;49.794;10.024;2023-04-03T16:15:50;2.05;;;1.50;;
24635;SDS011;12772;49.794;10.024;2023-04-03T16:19:52;1.83;;;1.73;;
24635;SDS011;12772;49.794;10.024;2023-04-03T16:23:56;3.05;;;1.65;;
24635;SDS011;12772;49.794;10.024;2023-04-03T16:27:59;3.63;;;2.78;;
24635;SDS011;12772;49.794;10.024;2023-04-03T16:32:02;2.80;;;1.75;;
24635;SDS011;12772;49.794;10.024;2023-04-03T16:36:04;3.08;;;2.28;;
24635;SDS011;12772;49.794;10.024;2023-04-03T16:40:07;5.00;;;1.88;;
24635;SDS011;12772;49.794;10.024;2023-04-03T16:44:10;2.25;;;1.33;;
24635;SDS011;12772;49.794;10.024;2023-04-03T16:48:13;2.03;;;1.90;;
24635;SDS011;12772;49.794;10.024;2023-04-03T16:52:15;2.25;;;2.03;;
24635;SDS011;12772;49.794;10.024;2023-04-03T16:56:17;2.90;;;2.03;;
24635;SDS011;12772;49.794;10.024;2023-04-03T17:00:19;4.40;;;2.10;;
24635;SDS011;12772;49.794;10.024;2023-04-03T17:04:22;3.40;;;1.80;;
24635;SDS011;12772;49.794;10.024;2023-04-03T17:08:24;3.67;;;2.35;;
24635;SDS011;12772;49.794;10.024;2023-04-03T17:12:26;2.08;;;1.30;;
24635;SDS011;12772;49.794;10.024;2023-04-03T17:16:28;4.32;;;1.50;;
24635;SDS011;12772;49.794;10.024;2023-04-03T17:20:31;4.20;;;2.55;;
24635;SDS011;12772;49.794;10.024;2023-04-03T17:24:34;3.75;;;1.90;;
24635;SDS011;12772;49.794;10.024;2023-04-03T17:28:36;2.85;;;1.90;;
24635;SDS011;12772;49.794;10.024;2023-04-03T17:32:41;3.33;;;1.85;;
24635;SDS011;12772;49.794;10.024;2023-04-03T17:36:43;2.70;;;2.45;;
24635;SDS011;12772;49.794;10.024;2023-04-03T17:40:45;5.63;;;2.75;;
24635;SDS011;12772;49.794;10.024;2023-04-03T17:44:47;2.40;;;2.00;;
24635;SDS011;12772;49.794;10.024;2023-04-03T17:48:50;3.92;;;2.08;;
24635;SDS011;12772;49.794;10.024;2023-04-03T17:52:52;3.55;;;2.00;;
24635;SDS011;12772;49.794;10.024;2023-04-03T17:56:54;4.43;;;2.70;;
24635;SDS011;12772;49.794;10.024;2023-04-03T18:00:56;4.82;;;2.45;;
24635;SDS011;12772;49.794;10.024;2023-04-03T18:04:58;3.28;;;2.30;;
24635;SDS011;12772;49.794;10.024;2023-04-03T18:09:02;5.25;;;2.10;;
24635;SDS011;12772;49.794;10.024;2023-04-03T18:13:10;6.78;;;2.33;;
24635;SDS011;12772;49.794;10.024;2023-04-03T18:17:12;4.88;;;2.80;;
24635;SDS011;12772;49.794;10.024;2023-04-03T18:21:14;2.72;;;2.25;;
24635;SDS011;12772;49.794;10.024;2023-04-03T18:25:16;5.68;;;2.80;;
24635;SDS011;12772;49.794;10.024;2023-04-03T18:29:19;3.03;;;2.20;;
24635;SDS011;12772;49.794;10.024;2023-04-03T18:33:22;3.33;;;2.40;;
24635;SDS011;12772;49.794;10.024;2023-04-03T18:37:24;3.40;;;1.98;;
24635;SDS011;12772;49.794;10.024;2023-04-03T18:41:28;4.32;;;2.00;;
24635;SDS011;12772;49.794;10.024;2023-04-03T18:45:33;4.32;;;2.50;;
24635;SDS011;12772;49.794;10.024;2023-04-03T18:49:35;4.18;;;2.85;;
24635;SDS011;12772;49.794;10.024;2023-04-03T18:53:39;5.50;;;2.72;;
24635;SDS011;12772;49.794;10.024;2023-04-03T18:57:41;3.42;;;2.60;;
24635;SDS011;12772;49.794;10.024;2023-04-03T19:01:43;2.58;;;2.20;;
24635;SDS011;12772;49.794;10.024;2023-04-03T19:05:46;3.85;;;2.42;;
24635;SDS011;12772;49.794;10.024;2023-04-03T19:09:48;4.85;;;2.40;;
24635;SDS011;12772;49.794;10.024;2023-04-03T19:13:50;5.03;;;2.72;;
24635;SDS011;12772;49.794;10.024;2023-04-03T19:17:52;6.40;;;4.05;;
24635;SDS011;12772;49.794;10.024;2023-04-03T19:21:54;4.65;;;3.15;;
24635;SDS011;12772;49.794;10.024;2023-04-03T19:25:57;4.95;;;2.90;;
24635;SDS011;12772;49.794;10.024;2023-04-03T19:30:06;3.42;;;2.60;;
24635;SDS011;12772;49.794;10.024;2023-04-03T19:34:11;2.80;;;2.10;;
24635;SDS011;12772;49.794;10.024;2023-04-03T19:38:13;3.25;;;2.67;;
24635;SDS011;12772;49.794;10.024;2023-04-03T19:42:15;3.58;;;2.30;;
24635;SDS011;12772;49.794;10.024;2023-04-03T19:46:20;2.78;;;2.58;;
24635;SDS011;12772;49.794;10.024;2023-04-03T19:50:23;2.85;;;1.88;;
24635;SDS011;12772;49.794;10.024;2023-04-03T19:54:25;3.40;;;2.45;;
24635;SDS011;12772;49.794;10.024;2023-04-03T19:58:27;4.07;;;2.42;;
24635;SDS011;12772;49.794;10.024;2023-04-03T20:02:29;2.88;;;1.92;;
24635;SDS011;12772;49.794;10.024;2023-04-03T20:06:32;4.00;;;2.60;;
24635;SDS011;12772;49.794;10.024;2023-04-03T20:10:34;4.47;;;2.30;;
24635;SDS011;12772;49.794;10.024;2023-04-03T20:14:39;4.70;;;2.65;;
24635;SDS011;12772;49.794;10.024;2023-04-03T20:18:41;3.35;;;3.05;;
24635;SDS011;12772;49.794;10.024;2023-04-03T20:22:43;4.35;;;2.92;;
24635;SDS011;12772;49.794;10.024;2023-04-03T20:26:45;5.07;;;3.08;;
24635;SDS011;12772;49.794;10.024;2023-04-03T20:30:51;4.55;;;3.25;;
24635;SDS011;12772;49.794;10.024;2023-04-03T20:34:55;3.35;;;2.20;;
24635;SDS011;12772;49.794;10.024;2023-04-03T20:38:57;3.47;;;2.10;;
24635;SDS011;12772;49.794;10.024;2023-04-03T20:42:59;5.93;;;2.30;;
24635;SDS011;12772;49.794;10.024;2023-04-03T20:47:02;2.78;;;2.08;;
24635;SDS011;12772;49.794;10.024;2023-04-03T20:51:08;4.60;;;2.17;;
24635;SDS011;12772;49.794;10.024;2023-04-03T20:55:16;3.75;;;2.35;;
24635;SDS011;12772;49.794;10.024;2023-04-03T20:59:18;4.80;;;2.05;;
24635;SDS011;12772;49.794;10.024;2023-04-03T21:03:22;2.67;;;1.58;;
24635;SDS011;12772;49.794;10.024;2023-04-03T21:20:47;2.38;;;1.83;;
24635;SDS011;12772;49.794;10.024;2023-04-03T21:24:50;3.78;;;2.10;;
24635;SDS011;12772;49.794;10.024;2023-04-03T21:28:52;2.22;;;2.03;;
24635;SDS011;12772;49.794;10.024;2023-04-03T21:32:55;3.90;;;2.30;;
24635;SDS011;12772;49.794;10.024;2023-04-03T21:37:00;2.83;;;1.80;;
24635;SDS011;12772;49.794;10.024;2023-04-03T21:41:03;2.80;;;2.25;;
24635;SDS011;12772;49.794;10.024;2023-04-03T21:45:06;3.20;;;2.53;;
24635;SDS011;12772;49.794;10.024;2023-04-03T21:49:08;3.88;;;2.60;;
24635;SDS011;12772;49.794;10.024;2023-04-03T21:53:10;2.55;;;2.35;;
24635;SDS011;12772;49.794;10.024;2023-04-03T21:57:12;2.40;;;2.00;;
24635;SDS011;12772;49.794;10.024;2023-04-03T22:01:15;3.00;;;2.25;;
24635;SDS011;12772;49.794;10.024;2023-04-03T22:05:18;2.67;;;2.47;;
24635;SDS011;12772;49.794;10.024;2023-04-03T22:09:20;2.25;;;2.00;;
24635;SDS011;12772;49.794;10.024;2023-04-03T22:13:22;2.35;;;2.00;;
24635;SDS011;12772;49.794;10.024;2023-04-03T22:17:24;2.63;;;2.35;;
24635;SDS011;12772;49.794;10.024;2023-04-03T22:21:29;2.40;;;1.95;;
24635;SDS011;12772;49.794;10.024;2023-04-03T22:25:32;2.42;;;2.22;;
24635;SDS011;12772;49.794;10.024;2023-04-03T22:29:34;3.28;;;2.58;;
24635;SDS011;12772;49.794;10.024;2023-04-03T22:33:36;2.40;;;2.20;;
24635;SDS011;12772;49.794;10.024;2023-04-03T22:37:39;4.10;;;2.60;;
24635;SDS011;12772;49.794;10.024;2023-04-03T22:41:41;2.45;;;2.22;;
24635;SDS011;12772;49.794;10.024;2023-04-03T22:45:47;3.38;;;1.83;;
24635;SDS011;12772;49.794;10.024;2023-04-03T22:49:49;3.45;;;2.22;;
24635;SDS011;12772;49.794;10.024;2023-04-03T22:53:51;2.58;;;2.38;;
24635;SDS011;12772;49.794;10.024;2023-04-03T22:57:53;3.08;;;2.00;;
24635;SDS011;12772;49.794;10.024;2023-04-03T23:01:55;2.25;;;2.05;;
24635;SDS011;12772;49.794;10.024;2023-04-03T23:05:57;2.92;;;2.28;;
24635;SDS011;12772;49.794;10.024;2023-04-03T23:10:00;4.35;;;2.35;;
24635;SDS011;12772;49.794;10.024;2023-04-03T23:14:02;2.15;;;1.92;;
24635;SDS011;12772;49.794;10.024;2023-04-03T23:18:05;2.75;;;1.80;;
24635;SDS011;12772;49.794;10.024;2023-04-03T23:22:07;2.22;;;2.03;;
24635;SDS011;12772;49.794;10.024;2023-04-03T23:26:11;2.08;;;1.92;;
24635;SDS011;12772;49.794;10.024;2023-04-03T23:30:13;3.05;;;1.85;;
24635;SDS011;12772;49.794;10.024;2023-04-03T23:34:15;3.28;;;1.98;;
24635;SDS011;12772;49.794;10.024;2023-04-03T23:38:17;2.55;;;1.55;;
24635;SDS011;12772;49.794;10.024;2023-04-03T23:42:19;3.42;;;2.13;;
24635;SDS011;12772;49.794;10.024;2023-04-03T23:46:21;1.95;;;1.75;;
24635;SDS011;12772;49.794;10.024;2023-04-03T23:50:23;2.03;;;1.83;;
24635;SDS011;12772;49.794;10.024;2023-04-03T23:54:26;1.92;;;1.73;;
24635;SDS011;12772;49.794;10.024;2023-04-03T23:58:27;3.00;;;1.73;;
